Time;durP1;ratioP1;P1;durP2;ratioP2;P2;SDS_P1;SDS_P2;PMS_P1;PMS_P2;Temp;Humidity;BMP_temperature;BMP_pressure;BME280_temperature;BME280_humidity;BME280_pressure;Samples;Min_cycle;Max_cycle;Signal;HPM_P1;HPM_P2
2021/08/02 00:02:28;;;;;;;;;;;;;;;26.30;40.91;99460.28;4406399;32;34067;-89
2021/08/02 00:05:00;;;;;;;;;;;;;;;26.60;40.17;99468.00;4417192;32;33749;-89
2021/08/02 00:07:27;;;;;;;;;;;;;;;26.52;40.46;99470.62;4404921;32;34586;-89
2021/08/02 00:09:56;;;;;;;;;;;;;;;26.86;39.72;99472.50;4400038;32;35439;-90
2021/08/02 00:12:28;;;;;;;;;;;;;;;26.00;41.70;99473.03;4417523;32;34970;-89
2021/08/02 00:14:57;;;;;;;;;;;;;;;25.89;42.13;99475.94;4417029;32;35019;-88
2021/08/02 00:17:26;;;;;;;;;;;;;;;26.36;41.08;99471.34;4404477;32;34243;-88
2021/08/02 00:19:53;;;;;;;;;;;;;;;26.38;41.03;99467.53;4405024;32;34870;-88
2021/08/02 00:22:20;;;;;;;;;;;;;;;26.19;41.38;99479.22;4378096;32;862186;-89
2021/08/02 00:24:49;;;;;;;;;;;;;;;26.41;41.12;99474.41;4417274;32;34157;-89
2021/08/02 00:27:18;;;;;;;;;;;;;;;26.73;40.13;99473.78;4404188;32;34709;-89
2021/08/02 00:29:46;;;;;;;;;;;;;;;26.11;41.59;99487.16;4416900;32;36283;-89
2021/08/02 00:32:14;;;;;;;;;;;;;;;26.73;40.24;99473.78;4417221;32;33966;-89
2021/08/02 00:34:41;;;;;;;;;;;;;;;26.60;40.39;99476.84;4404537;32;32544;-89
2021/08/02 00:37:11;;;;;;;;;;;;;;;26.59;40.34;99472.50;4416831;32;35213;-89
2021/08/02 00:39:39;;;;;;;;;;;;;;;26.25;41.16;99481.28;4417392;32;34343;-89
2021/08/02 00:42:26;;;;;;;;;;;;;;;26.69;40.07;99480.41;4404173;32;35347;-89
2021/08/02 00:45:07;;;;;;;;;;;;;;;27.07;39.11;99477.44;4404672;32;34599;-89
2021/08/02 00:47:40;;;;;;;;;;;;;;;27.34;38.54;99479.06;4417392;32;34313;-89
2021/08/02 00:50:08;;;;;;;;;;;;;;;26.83;39.61;99485.19;4405145;32;34738;-88
2021/08/02 00:52:35;;;;;;;;;;;;;;;26.96;39.45;99481.25;4404303;32;34536;-90
2021/08/02 00:55:06;;;;;;;;;;;;;;;26.43;40.57;99483.06;4404932;32;34217;-89
2021/08/02 00:57:37;;;;;;;;;;;;;;;26.69;40.03;99480.41;4416733;32;32902;-89
2021/08/02 01:00:06;;;;;;;;;;;;;;;26.82;39.70;99482.69;4404486;32;35235;-89
2021/08/02 01:02:39;;;;;;;;;;;;;;;26.51;40.32;99488.47;4417038;32;33497;-89
2021/08/02 01:05:09;;;;;;;;;;;;;;;26.70;39.92;99481.22;4416930;32;33572;-89
2021/08/02 01:07:40;;;;;;;;;;;;;;;26.70;39.89;99483.91;4416865;32;34209;-89
2021/08/02 01:10:09;;;;;;;;;;;;;;;26.72;39.75;99482.78;4414397;32;34311;-88
2021/08/02 01:12:39;;;;;;;;;;;;;;;26.67;39.78;99490.41;4414289;32;34192;-89
2021/08/02 01:15:10;;;;;;;;;;;;;;;27.04;39.00;99481.28;4389377;32;33041;-90
2021/08/02 01:17:38;;;;;;;;;;;;;;;26.80;39.28;99484.66;4401510;32;34390;-89
2021/08/02 01:20:06;;;;;;;;;;;;;;;26.93;38.86;99481.56;4414540;32;34744;-89
2021/08/02 01:22:36;;;;;;;;;;;;;;;26.86;39.01;99492.06;4400954;32;34502;-89
2021/08/02 01:25:23;;;;;;;;;;;;;;;26.34;40.18;99487.53;4389130;32;33280;-88
2021/08/02 01:28:12;;;;;;;;;;;;;;;26.37;40.10;99489.06;4400820;32;34447;-89
2021/08/02 01:30:44;;;;;;;;;;;;;;;26.15;40.67;99488.53;4388665;32;33707;-88
2021/08/02 01:33:13;;;;;;;;;;;;;;;26.46;39.84;99480.09;4388549;32;36035;-89
2021/08/02 01:35:41;;;;;;;;;;;;;;;26.41;39.95;99477.88;4376930;32;34619;-88
2021/08/02 01:38:13;;;;;;;;;;;;;;;26.21;40.42;99485.25;4401547;32;33830;-88
2021/08/02 01:40:40;;;;;;;;;;;;;;;26.09;40.64;99486.50;4414273;32;33212;-88
2021/08/02 01:43:08;;;;;;;;;;;;;;;26.48;39.77;99489.63;4401278;32;34490;-89
2021/08/02 01:45:41;;;;;;;;;;;;;;;26.48;39.65;99496.81;4389085;32;33369;-88
2021/08/02 01:48:19;;;;;;;;;;;;;;;26.56;39.39;99499.53;4414067;32;33241;-89
2021/08/02 01:50:59;;;;;;;;;;;;;;;26.12;40.37;99507.53;4401306;32;34440;-89
2021/08/02 01:53:31;;;;;;;;;;;;;;;26.16;40.21;99517.75;4401435;32;34584;-89
2021/08/02 01:56:03;;;;;;;;;;;;;;;26.36;39.80;99519.41;4388827;32;33461;-89
2021/08/02 01:58:32;;;;;;;;;;;;;;;25.83;40.78;99525.44;4401471;32;34345;-89
2021/08/02 02:00:59;;;;;;;;;;;;;;;25.76;41.03;99526.19;4388364;32;34764;-88
2021/08/02 02:03:28;;;;;;;;;;;;;;;25.62;41.29;99530.19;4388614;32;35550;-89
2021/08/02 02:05:59;;;;;;;;;;;;;;;25.58;41.55;99540.34;4388355;32;34816;-89
2021/08/02 02:08:32;;;;;;;;;;;;;;;26.04;40.43;99537.66;4401877;32;34354;-89
2021/08/02 02:11:03;;;;;;;;;;;;;;;26.05;40.47;99550.03;4402843;32;36037;-89
2021/08/02 02:13:37;;;;;;;;;;;;;;;26.11;40.27;99548.56;4403172;32;34829;-89
2021/08/02 02:16:05;;;;;;;;;;;;;;;25.85;40.80;99546.63;4403884;32;34242;-89
2021/08/02 02:18:33;;;;;;;;;;;;;;;26.30;39.64;99540.41;4378463;32;33958;-89
2021/08/02 02:21:02;;;;;;;;;;;;;;;25.98;40.46;99557.78;4415870;32;35176;-89
2021/08/02 02:23:30;;;;;;;;;;;;;;;25.99;40.30;99554.13;4402996;32;35553;-89
2021/08/02 02:25:57;;;;;;;;;;;;;;;26.46;39.30;99555.72;4403329;32;33740;-89
2021/08/02 02:28:25;;;;;;;;;;;;;;;25.98;40.48;99551.56;4390768;32;34727;-89
2021/08/02 02:30:56;;;;;;;;;;;;;;;26.05;40.08;99555.38;4403018;32;35202;-89
2021/08/02 02:33:25;;;;;;;;;;;;;;;26.40;39.50;99552.84;4415886;32;34314;-89
2021/08/02 02:35:53;;;;;;;;;;;;;;;26.19;40.05;99562.00;4416029;32;34495;-89
2021/08/02 02:38:21;;;;;;;;;;;;;;;26.54;39.22;99560.28;4415840;32;33672;-89
2021/08/02 02:40:50;;;;;;;;;;;;;;;25.61;41.21;99573.87;4416905;32;34040;-89
2021/08/02 02:43:19;;;;;;;;;;;;;;;26.34;39.58;99573.00;4417996;32;34594;-89
2021/08/02 02:45:46;;;;;;;;;;;;;;;25.78;40.98;99583.75;4418118;32;34044;-89
2021/08/02 02:48:15;;;;;;;;;;;;;;;25.83;40.91;99581.47;4393040;32;34947;-89
2021/08/02 02:50:45;;;;;;;;;;;;;;;26.07;40.39;99590.72;4405570;32;35299;-88
2021/08/02 02:53:13;;;;;;;;;;;;;;;26.23;40.10;99586.56;4404743;32;36176;-89
2021/08/02 02:55:42;;;;;;;;;;;;;;;26.35;39.84;99593.34;4405537;32;34506;-89
2021/08/02 02:58:12;;;;;;;;;;;;;;;26.52;39.50;99599.66;4393190;32;33097;-89
2021/08/02 03:00:40;;;;;;;;;;;;;;;26.55;39.55;99609.22;4405406;32;35016;-89
2021/08/02 03:03:08;;;;;;;;;;;;;;;25.91;40.98;99601.22;4392966;32;33733;-89
2021/08/02 03:05:37;;;;;;;;;;;;;;;25.63;41.71;99617.25;4405215;32;34240;-89
2021/08/02 03:08:06;;;;;;;;;;;;;;;25.55;42.02;99623.31;4405342;32;34139;-88
2021/08/02 03:10:35;;;;;;;;;;;;;;;26.20;40.65;99634.94;4417883;32;34865;-89
2021/08/02 03:13:03;;;;;;;;;;;;;;;25.75;41.62;99633.91;4405058;32;34773;-89
2021/08/02 03:15:30;;;;;;;;;;;;;;;26.34;40.22;99637.91;4392845;32;34261;-89
2021/08/02 03:17:58;;;;;;;;;;;;;;;26.29;40.31;99652.72;4417934;32;35526;-88
2021/08/02 03:20:25;;;;;;;;;;;;;;;26.55;39.83;99657.28;4404822;32;35053;-89
2021/08/02 03:22:58;;;;;;;;;;;;;;;26.00;41.01;99654.53;4405276;32;34236;-90
2021/08/02 03:25:26;;;;;;;;;;;;;;;25.81;41.20;99641.31;4405008;32;34014;-89
2021/08/02 03:27:55;;;;;;;;;;;;;;;25.82;41.27;99646.50;4405363;32;34804;-89
2021/08/02 03:30:23;;;;;;;;;;;;;;;25.94;41.12;99635.59;4392801;32;34547;-88
2021/08/02 03:32:51;;;;;;;;;;;;;;;26.17;40.47;99631.56;4405773;32;35821;-88
2021/08/02 03:35:18;;;;;;;;;;;;;;;25.76;41.44;99627.56;4409326;32;34287;-89
2021/08/02 03:37:45;;;;;;;;;;;;;;;26.29;40.38;99650.87;4396661;32;34665;-88
2021/08/02 03:40:15;;;;;;;;;;;;;;;25.83;41.50;99661.53;4408498;32;34764;-89
2021/08/02 03:42:42;;;;;;;;;;;;;;;26.03;40.86;99668.59;4405879;32;34767;-89
2021/08/02 03:45:10;;;;;;;;;;;;;;;25.64;41.89;99673.09;4404959;32;33633;-88
2021/08/02 03:47:38;;;;;;;;;;;;;;;25.63;41.95;99676.78;4404486;32;34237;-89
2021/08/02 03:50:05;;;;;;;;;;;;;;;25.95;41.47;99675.53;4405555;32;35051;-89
2021/08/02 03:52:33;;;;;;;;;;;;;;;25.95;41.24;99688.87;4404126;32;34990;-89
2021/08/02 03:55:01;;;;;;;;;;;;;;;26.09;40.99;99684.03;4404674;32;34191;-88
2021/08/02 03:57:30;;;;;;;;;;;;;;;25.95;41.43;99688.87;4405321;32;34255;-89
2021/08/02 03:59:57;;;;;;;;;;;;;;;26.05;41.22;99696.00;4404291;32;34949;-89
2021/08/02 04:02:25;;;;;;;;;;;;;;;25.67;42.09;99696.00;4392429;32;34244;-89
2021/08/02 04:04:53;;;;;;;;;;;;;;;25.74;42.31;99709.59;4404591;32;33785;-88
2021/08/02 04:07:21;;;;;;;;;;;;;;;25.92;41.93;99713.16;4405022;32;34165;-89
2021/08/02 04:09:48;;;;;;;;;;;;;;;24.66;45.12;99713.25;4396591;32;34814;-88
2021/08/02 04:12:16;;;;;;;;;;;;;;;24.69;45.05;99712.13;4377077;32;34282;-88
2021/08/02 04:14:43;;;;;;;;;;;;;;;24.74;44.92;99717.84;4401833;32;33814;-89
2021/08/02 04:17:11;;;;;;;;;;;;;;;24.61;45.34;99719.91;4414000;32;34557;-89
2021/08/02 04:19:39;;;;;;;;;;;;;;;24.97;44.34;99718.44;4389509;32;33436;-89
2021/08/02 04:22:07;;;;;;;;;;;;;;;25.08;44.24;99721.94;4401159;32;34803;-89
2021/08/02 04:24:34;;;;;;;;;;;;;;;25.29;43.68;99727.94;4401522;32;35312;-89
2021/08/02 04:27:02;;;;;;;;;;;;;;;25.86;42.49;99732.44;4401789;32;34321;-90
2021/08/02 04:29:30;;;;;;;;;;;;;;;25.98;42.16;99739.28;4388712;32;35816;-89
2021/08/02 04:31:57;;;;;;;;;;;;;;;26.41;40.97;99742.31;4401515;32;34666;-88
2021/08/02 04:34:26;;;;;;;;;;;;;;;26.30;41.26;99754.03;4401488;32;33511;-89
2021/08/02 04:36:53;;;;;;;;;;;;;;;26.15;41.61;99752.84;4401607;32;33097;-89
2021/08/02 04:39:20;;;;;;;;;;;;;;;26.33;41.27;99751.06;4401518;32;34862;-88
2021/08/02 04:41:48;;;;;;;;;;;;;;;26.27;41.77;99754.34;4413485;32;34939;-88
2021/08/02 04:44:15;;;;;;;;;;;;;;;26.74;40.79;99744.50;4401742;32;33920;-89
2021/08/02 04:46:43;;;;;;;;;;;;;;;26.67;40.87;99747.75;4401336;32;33739;-88
2021/08/02 04:49:11;;;;;;;;;;;;;;;26.76;40.57;99745.19;4388577;32;34745;-88
2021/08/02 04:51:39;;;;;;;;;;;;;;;26.88;40.22;99746.62;4401000;32;35065;-89
2021/08/02 04:54:07;;;;;;;;;;;;;;;26.91;40.06;99741.00;4401743;32;33752;-88
2021/08/02 04:56:35;;;;;;;;;;;;;;;26.92;39.99;99741.84;4388184;32;34976;-91
2021/08/02 04:59:02;;;;;;;;;;;;;;;26.38;41.06;99742.63;4388679;32;35413;-88
2021/08/02 05:01:30;;;;;;;;;;;;;;;26.78;39.93;99743.22;4401311;32;35533;-89
2021/08/02 05:03:58;;;;;;;;;;;;;;;26.55;40.79;99746.31;4375907;32;33639;-88
2021/08/02 05:06:25;;;;;;;;;;;;;;;26.66;40.46;99748.75;4401241;32;35320;-88
2021/08/02 05:08:52;;;;;;;;;;;;;;;26.93;40.15;99759.56;4403681;32;35051;-89
2021/08/02 05:11:20;;;;;;;;;;;;;;;26.86;40.47;99748.63;4384118;32;34782;-89
2021/08/02 05:13:48;;;;;;;;;;;;;;;27.30;39.27;99755.84;4395719;32;34205;-86
2021/08/02 05:16:15;;;;;;;;;;;;;;;26.88;39.82;99756.50;4397338;32;33125;-89
2021/08/02 05:18:44;;;;;;;;;;;;;;;26.86;39.74;99764.69;4392167;32;34931;-90
2021/08/02 05:21:11;;;;;;;;;;;;;;;26.74;40.26;99758.72;4389724;32;34351;-88
2021/08/02 05:23:39;;;;;;;;;;;;;;;26.97;39.94;99751.06;4389935;32;34047;-86
2021/08/02 05:26:07;;;;;;;;;;;;;;;26.61;40.78;99760.88;4389214;32;35776;-87
2021/08/02 05:28:35;;;;;;;;;;;;;;;27.11;39.83;99751.50;4389279;32;34994;-89
2021/08/02 05:31:02;;;;;;;;;;;;;;;27.30;39.24;99754.00;4376333;32;34715;-89
2021/08/02 05:33:32;;;;;;;;;;;;;;;27.21;39.14;99754.12;4391271;32;35338;-91
2021/08/02 05:36:03;;;;;;;;;;;;;;;26.85;40.08;99757.66;4379507;32;34657;-88
2021/08/02 05:38:33;;;;;;;;;;;;;;;27.15;39.57;99759.09;4380003;32;33394;-91
2021/08/02 05:41:01;;;;;;;;;;;;;;;27.57;38.52;99757.56;4405987;32;34259;-90
2021/08/02 05:43:29;;;;;;;;;;;;;;;27.83;37.98;99759.41;4405244;32;33947;-88
2021/08/02 05:45:56;;;;;;;;;;;;;;;27.57;38.55;99762.91;4400119;32;34774;-88
2021/08/02 05:48:25;;;;;;;;;;;;;;;27.08;39.62;99760.69;4411257;32;35064;-88
2021/08/02 05:50:52;;;;;;;;;;;;;;;27.48;38.87;99762.03;4408222;32;34952;-89
2021/08/02 05:53:21;;;;;;;;;;;;;;;27.53;38.98;99774.94;4394138;32;33626;-89
2021/08/02 05:55:48;;;;;;;;;;;;;;;27.73;38.41;99769.38;4405967;32;34494;-90
2021/08/02 05:58:16;;;;;;;;;;;;;;;27.75;38.47;99770.06;4394319;32;35326;-91
2021/08/02 06:00:44;;;;;;;;;;;;;;;27.36;39.14;99770.44;4406381;32;34219;-89
2021/08/02 06:03:13;;;;;;;;;;;;;;;27.61;38.58;99772.31;4406636;32;32633;-88
2021/08/02 06:05:41;;;;;;;;;;;;;;;27.53;38.43;99769.59;4395604;32;34364;-88
2021/08/02 06:08:09;;;;;;;;;;;;;;;27.69;37.84;99773.37;4406875;32;34264;-90
2021/08/02 06:10:39;;;;;;;;;;;;;;;27.34;38.91;99783.97;4420779;32;34360;-90
2021/08/02 06:13:07;;;;;;;;;;;;;;;27.06;39.44;99791.25;4423968;32;33735;-90
2021/08/02 06:15:34;;;;;;;;;;;;;;;27.37;38.29;99785.50;4425756;32;35101;-89
2021/08/02 06:18:02;;;;;;;;;;;;;;;27.75;37.66;99786.09;4426080;32;35697;-90
2021/08/02 06:20:30;;;;;;;;;;;;;;;27.55;38.25;99788.16;4412811;32;35901;-87
2021/08/02 06:22:57;;;;;;;;;;;;;;;27.36;38.50;99787.31;4425794;32;34810;-87
2021/08/02 06:25:25;;;;;;;;;;;;;;;27.29;38.17;99789.78;4400952;32;33355;-86
2021/08/02 06:27:52;;;;;;;;;;;;;;;28.18;36.79;99802.28;4413012;32;35867;-89
2021/08/02 06:30:20;;;;;;;;;;;;;;;27.82;37.81;99803.22;4412759;32;33436;-90
2021/08/02 06:32:49;;;;;;;;;;;;;;;28.42;36.25;99806.91;4401421;32;32646;-90
2021/08/02 06:35:17;;;;;;;;;;;;;;;27.97;37.25;99807.00;4427004;32;34432;-90
2021/08/02 06:37:45;;;;;;;;;;;;;;;27.86;37.19;99820.66;4426830;32;35547;-91
2021/08/02 06:40:34;;;;;;;;;;;;;;;27.11;38.10;99819.22;4428479;32;34246;-92
2021/08/02 06:43:01;;;;;;;;;;;;;;;27.40;37.86;99820.00;4426588;32;33906;-91
2021/08/02 06:45:29;;;;;;;;;;;;;;;27.45;37.85;99817.69;4413100;32;35077;-92
2021/08/02 06:47:56;;;;;;;;;;;;;;;27.29;38.07;99829.88;4413224;32;33367;-92
2021/08/02 06:50:24;;;;;;;;;;;;;;;27.36;38.47;99818.59;4414061;32;33279;-92
2021/08/02 06:52:52;;;;;;;;;;;;;;;27.64;38.09;99828.22;4438721;27;33118;-91
2021/08/02 06:55:24;;;;;;;;;;;;;;;26.88;38.65;99837.50;4396528;32;33716;-90
2021/08/02 06:57:51;;;;;;;;;;;;;;;27.18;38.31;99838.16;4397069;32;33592;-90
2021/08/02 07:00:19;;;;;;;;;;;;;;;27.41;37.75;99841.22;4396815;32;35757;-91
2021/08/02 07:02:48;;;;;;;;;;;;;;;27.65;37.54;99839.75;4385006;32;34880;-90
2021/08/02 07:05:16;;;;;;;;;;;;;;;27.87;37.00;99842.91;4397624;32;34264;-90
2021/08/02 07:07:44;;;;;;;;;;;;;;;28.25;36.16;99838.12;4408797;32;35184;-91
2021/08/02 07:10:13;;;;;;;;;;;;;;;27.81;36.96;99839.88;4408223;32;38436;-90
2021/08/02 07:12:40;;;;;;;;;;;;;;;28.28;36.10;99845.84;4408829;32;34822;-89
2021/08/02 07:15:12;;;;;;;;;;;;;;;28.26;36.56;99842.50;4409673;32;35437;-92
2021/08/02 07:17:46;;;;;;;;;;;;;;;28.02;36.71;99844.03;4409585;32;36743;-90
2021/08/02 07:20:14;;;;;;;;;;;;;;;28.31;35.48;99834.84;4397072;32;35681;-92
2021/08/02 07:22:46;;;;;;;;;;;;;;;28.59;35.03;99845.31;4397129;32;34215;-90
2021/08/02 07:25:16;;;;;;;;;;;;;;;27.91;35.65;99831.72;4409660;32;33981;-92
2021/08/02 07:27:44;;;;;;;;;;;;;;;28.30;35.21;99827.78;4409270;32;36074;-90
2021/08/02 07:30:15;;;;;;;;;;;;;;;28.54;34.99;99832.41;4396817;32;35179;-92
2021/08/02 07:32:50;;;;;;;;;;;;;;;28.32;35.30;99831.13;4397542;32;35040;-89
2021/08/02 07:35:27;;;;;;;;;;;;;;;28.63;34.90;99827.91;4397266;32;35560;-92
2021/08/02 07:38:01;;;;;;;;;;;;;;;28.37;35.07;99838.69;4396290;32;34659;-90
2021/08/02 07:40:41;;;;;;;;;;;;;;;;;;;;;
2021/08/02 07:43:26;;;;;;;;;;;;;;;29.42;33.59;99836.47;4410078;32;33787;-92
2021/08/02 07:46:13;;;;;;;;;;;;;;;29.59;33.05;99836.47;4409985;32;36121;-92
2021/08/02 07:48:51;;;;;;;;;;;;;;;28.87;33.65;99832.53;4407254;32;33863;-95
2021/08/02 07:51:34;;;;;;;;;;;;;;;28.92;33.64;99827.50;4394274;32;33566;-91
2021/08/02 07:54:37;;;;;;;;;;;;;;;29.01;33.60;99832.87;4405642;32;33095;-91
2021/08/02 07:57:29;;;;;;;;;;;;;;;;;;;;;
2021/08/02 08:00:45;;;;;;;;;;;;;;;28.87;33.15;99839.75;4409535;32;35369;-92
2021/08/02 08:03:53;;;;;;;;;;;;;;;29.19;33.67;99844.31;4414040;32;33804;-89
2021/08/02 08:06:45;;;;;;;;;;;;;;;29.55;33.32;99852.06;4399488;32;34638;-92
2021/08/02 08:10:16;;;;;;;;;;;;;;;29.23;33.92;99845.66;4406209;32;33448;-89
2021/08/02 08:13:34;;;;;;;;;;;;;;;29.58;32.86;99851.72;4403054;32;35365;-93
2021/08/02 08:20:18;;;;;;;;;;;;;;;29.32;33.05;99857.28;4398710;32;33601;-92
2021/08/02 08:23:57;;;;;;;;;;;;;;;29.61;32.21;99854.09;4401557;32;33960;-92
2021/08/02 08:26:48;;;;;;;;;;;;;;;29.35;32.89;99850.75;4399116;32;35523;-92
2021/08/02 08:31:02;;;;;;;;;;;;;;;29.95;31.67;99868.34;4399861;32;34410;-92
2021/08/02 08:33:56;;;;;;;;;;;;;;;;;;;;;
2021/08/02 08:36:38;;;;;;;;;;;;;;;30.28;30.43;99863.72;4397699;32;35022;-94
2021/08/02 08:40:09;;;;;;;;;;;;;;;30.04;31.29;99871.84;4396543;32;36042;-90
2021/08/02 08:43:35;;;;;;;;;;;;;;;29.81;31.64;99881.41;4411875;32;34210;-91
2021/08/02 08:46:52;;;;;;;;;;;;;;;29.90;31.85;99868.88;4398366;32;32764;-91
2021/08/02 08:50:36;;;;;;;;;;;;;;;30.17;30.85;99866.78;4388391;32;34669;-91
2021/08/02 08:53:56;;;;;;;;;;;;;;;30.50;30.26;99866.69;4359670;32;34271;-91
2021/08/02 08:57:20;;;;;;;;;;;;;;;30.93;29.52;99877.09;4371504;32;33538;-93
2021/08/02 09:01:16;;;;;;;;;;;;;;;;;;;;;
2021/08/02 09:04:56;;;;;;;;;;;;;;;31.07;28.31;99891.66;4391512;32;34311;-91
2021/08/02 09:08:29;;;;;;;;;;;;;;;29.89;30.29;99883.28;4387022;32;33576;-91
2021/08/02 09:19:15;;;;;;;;;;;;;;;31.51;27.87;99885.59;4273062;33;33813;-92
2021/08/02 09:23:05;;;;;;;;;;;;;;;31.81;28.48;99889.25;4227793;33;33208;-92
2021/08/02 09:30:25;;;;;;;;;;;;;;;31.71;28.17;99898.62;4197813;33;33256;-90
2021/08/02 09:40:47;;;;;;;;;;;;;;;30.50;29.79;99911.56;4204947;33;34705;-89
2021/08/02 09:43:58;;;;;;;;;;;;;;;;;;;;;
2021/08/02 09:53:42;;;;;;;;;;;;;;;31.80;28.62;99911.00;4479321;31;1042148;-91
2021/08/02 09:56:13;;;;;;;;;;;;;;;31.80;28.62;99911.00;4475302;31;33056;-92
2021/08/02 09:58:41;;;;;;;;;;;;;;;31.88;28.42;99910.91;4486272;31;33247;-93
2021/08/02 10:01:11;;;;;;;;;;;;;;;31.81;28.66;99910.81;4486195;31;33703;-93
2021/08/02 10:03:39;;;;;;;;;;;;;;;31.73;28.57;99908.19;4499042;31;33677;-92
2021/08/02 10:06:12;;;;;;;;;;;;;;;31.98;27.97;99908.78;4486145;31;32708;-92
2021/08/02 10:08:43;;;;;;;;;;;;;;;31.94;28.18;99903.97;4473533;31;33248;-92
2021/08/02 10:11:11;;;;;;;;;;;;;;;31.78;27.53;99907.66;4499352;31;34581;-92
2021/08/02 10:13:43;;;;;;;;;;;;;;;31.69;27.97;99901.50;4485972;31;32846;-92
2021/08/02 10:19:43;;;;;;;;;;;;;;;30.81;28.87;99892.78;4479351;32;35427;-91
2021/08/02 10:22:12;;;;;;;;;;;;;;;30.56;29.41;99890.19;4440458;32;34499;-90
2021/08/02 10:24:46;;;;;;;;;;;;;;;31.88;27.78;99888.53;4461181;32;34420;-93
2021/08/02 10:27:28;;;;;;;;;;;;;;;31.70;27.84;99881.63;4930809;26;32518;-89
2021/08/02 10:30:22;;;;;;;;;;;;;;;32.56;27.28;99889.34;4424859;32;34020;-92
2021/08/02 10:32:57;;;;;;;;;;;;;;;32.12;27.63;99891.00;4420550;32;33558;-93
2021/08/02 10:35:32;;;;;;;;;;;;;;;32.84;26.28;99885.13;4420266;32;35101;-91
2021/08/02 10:38:01;;;;;;;;;;;;;;;33.07;25.83;99893.91;4408257;32;33559;-91
2021/08/02 10:40:29;;;;;;;;;;;;;;;32.88;25.87;99897.22;4407862;32;34494;-92
2021/08/02 10:42:57;;;;;;;;;;;;;;;33.00;25.73;99892.16;4420031;32;34353;-92
2021/08/02 10:45:30;;;;;;;;;;;;;;;32.82;25.35;99906.09;4420703;32;34230;-92
2021/08/02 10:47:57;;;;;;;;;;;;;;;32.75;25.16;99912.22;4416946;32;34534;-92
2021/08/02 10:50:26;;;;;;;;;;;;;;;32.04;26.83;99909.09;4402016;32;35195;-93
2021/08/02 10:52:58;;;;;;;;;;;;;;;33.24;25.03;99899.91;4394736;32;35007;-93
2021/08/02 10:55:29;;;;;;;;;;;;;;;33.46;25.09;99913.44;4408374;32;34308;-92
2021/08/02 10:58:00;;;;;;;;;;;;;;;33.51;24.61;99915.56;4424244;32;34114;-92
2021/08/02 11:00:29;;;;;;;;;;;;;;;33.20;25.04;99895.91;4432721;32;35549;-93
2021/08/02 11:02:58;;;;;;;;;;;;;;;33.21;25.04;99902.97;4430042;32;35304;-93
2021/08/02 11:05:29;;;;;;;;;;;;;;;32.30;25.71;99906.00;4421318;32;34253;-92
2021/08/02 11:08:03;;;;;;;;;;;;;;;33.43;24.02;99898.44;4434417;32;34561;-92
2021/08/02 11:10:33;;;;;;;;;;;;;;;33.85;23.12;99898.62;4421038;32;34629;-93
2021/08/02 11:13:08;;;;;;;;;;;;;;;33.23;24.43;99902.81;4409435;32;34638;-93
2021/08/02 11:15:41;;;;;;;;;;;;;;;33.88;23.99;99902.78;4409396;32;34829;-93
2021/08/02 11:18:10;;;;;;;;;;;;;;;32.26;25.46;99908.22;4421470;32;34712;-93
2021/08/02 11:20:38;;;;;;;;;;;;;;;33.12;24.68;99904.97;4433680;32;34502;-95
2021/08/02 11:23:05;;;;;;;;;;;;;;;33.41;24.34;99915.88;4421556;32;35070;-93
2021/08/02 11:25:38;;;;;;;;;;;;;;;33.53;23.94;99914.31;4433466;32;34759;-91
2021/08/02 11:28:06;;;;;;;;;;;;;;;33.57;24.15;99910.22;4421318;32;34455;-93
2021/08/02 11:30:35;;;;;;;;;;;;;;;33.53;24.31;99919.72;4421671;32;34544;-94
2021/08/02 11:33:03;;;;;;;;;;;;;;;34.05;23.38;99916.84;4421886;32;35535;-94
2021/08/02 11:35:35;;;;;;;;;;;;;;;34.24;22.31;99916.16;4422560;32;35595;-91
2021/08/02 11:38:04;;;;;;;;;;;;;;;33.91;23.23;99915.94;4435172;32;32315;-92
2021/08/02 11:40:37;;;;;;;;;;;;;;;34.76;22.26;99916.66;4422022;32;33437;-93
2021/08/02 11:43:06;;;;;;;;;;;;;;;35.00;21.78;99910.94;4431450;32;35058;-93
2021/08/02 11:45:35;;;;;;;;;;;;;;;34.75;22.36;99916.84;4422800;32;34110;-93
2021/08/02 11:48:07;;;;;;;;;;;;;;;35.18;22.06;99924.75;4432857;32;34003;-93
2021/08/02 11:50:35;;;;;;;;;;;;;;;34.23;22.55;99927.16;4418803;32;35427;-95
2021/08/02 11:53:09;;;;;;;;;;;;;;;34.94;21.72;99915.28;4422504;32;35445;-93
2021/08/02 11:55:48;;;;;;;;;;;;;;;35.15;21.75;99924.31;4399592;32;34909;-94
2021/08/02 11:58:15;;;;;;;;;;;;;;;34.78;22.55;99928.12;4414407;32;32646;-94
2021/08/02 12:00:43;;;;;;;;;;;;;;;35.40;21.79;99925.44;4410360;32;34985;-94
2021/08/02 12:03:12;;;;;;;;;;;;;;;34.55;22.06;99930.28;4406591;32;35625;-94
2021/08/02 12:05:40;;;;;;;;;;;;;;;34.25;21.92;99938.59;4414001;32;34559;-93
2021/08/02 12:08:13;;;;;;;;;;;;;;;33.82;22.90;99939.53;4395855;32;34855;-92
2021/08/02 12:10:42;;;;;;;;;;;;;;;34.39;21.74;99939.56;4396051;32;34657;-94
2021/08/02 12:13:13;;;;;;;;;;;;;;;34.09;22.33;99935.19;4415617;32;33458;-92
2021/08/02 12:15:52;;;;;;;;;;;;;;;34.43;22.20;99930.84;4426889;32;33581;-93
2021/08/02 12:18:27;;;;;;;;;;;;;;;35.10;21.21;99928.47;4421518;32;33850;-92
2021/08/02 12:21:12;;;;;;;;;;;;;;;35.43;20.77;99924.19;4416118;32;34126;-94
2021/08/02 12:23:41;;;;;;;;;;;;;;;35.64;20.88;99933.19;4405898;32;35600;-93
2021/08/02 12:26:13;;;;;;;;;;;;;;;34.49;22.30;99937.34;4411428;32;34230;-94
2021/08/02 12:28:42;;;;;;;;;;;;;;;34.25;22.99;99934.06;4427919;32;35227;-91
2021/08/02 12:31:18;;;;;;;;;;;;;;;34.80;22.60;99930.63;4423488;32;34623;-95
2021/08/02 12:34:04;;;;;;;;;;;;;;;34.79;22.22;99935.19;4392194;32;33185;-91
2021/08/02 12:36:32;;;;;;;;;;;;;;;35.11;21.20;99929.28;4392685;32;34423;-89
2021/08/02 12:38:59;;;;;;;;;;;;;;;33.63;22.58;99928.34;4405485;32;33132;-91
2021/08/02 12:41:27;;;;;;;;;;;;;;;35.05;21.24;99936.38;4381133;32;35990;-94
2021/08/02 12:43:56;;;;;;;;;;;;;;;35.16;21.35;99936.81;4392544;32;35987;-93
2021/08/02 12:46:23;;;;;;;;;;;;;;;35.14;21.02;99928.06;4380206;32;34910;-93
2021/08/02 12:48:54;;;;;;;;;;;;;;;35.48;20.71;99931.69;4402640;32;34271;-91
2021/08/02 12:51:23;;;;;;;;;;;;;;;35.90;20.25;99926.94;4395715;32;35601;-88
2021/08/02 12:53:51;;;;;;;;;;;;;;;35.45;20.90;99932.94;4408596;32;34363;-93
2021/08/02 12:56:18;;;;;;;;;;;;;;;35.53;20.14;99927.31;4383182;32;34379;-93
2021/08/02 12:58:47;;;;;;;;;;;;;;;35.58;20.64;99929.41;4395769;32;32247;-93
2021/08/02 13:01:16;;;;;;;;;;;;;;;35.89;20.40;99934.25;4407344;32;34569;-92
2021/08/02 13:03:44;;;;;;;;;;;;;;;35.68;19.96;99924.41;4403025;32;34569;-92
2021/08/02 13:06:14;;;;;;;;;;;;;;;35.20;21.05;99928.06;4406946;32;35412;-92
2021/08/02 13:08:43;;;;;;;;;;;;;;;35.33;21.04;99921.00;4383501;32;32502;-92
2021/08/02 13:11:13;;;;;;;;;;;;;;;35.30;21.10;99919.53;4383217;32;35153;-92
2021/08/02 13:13:41;;;;;;;;;;;;;;;36.27;19.95;99914.59;4407296;32;35196;-92
2021/08/02 13:16:09;;;;;;;;;;;;;;;36.06;19.80;99909.41;4407089;32;34608;-93
2021/08/02 13:18:38;;;;;;;;;;;;;;;35.25;20.57;99909.34;4394629;32;32859;-90
2021/08/02 13:21:06;;;;;;;;;;;;;;;35.58;19.86;99911.28;4407417;32;34314;-91
2021/08/02 13:26:55;;;;;;;;;;;;;;;36.13;19.44;99914.81;4407349;32;34436;-91
2021/08/02 13:29:13;;;;;;;;;;;;;;;35.87;19.14;99914.63;4396338;32;33981;-87
2021/08/02 13:31:42;;;;;;;;;;;;;;;36.68;18.76;99914.47;4394438;32;33808;-89
2021/08/02 13:34:10;;;;;;;;;;;;;;;36.57;18.49;99914.09;4406580;32;33847;-87
2021/08/02 13:36:38;;;;;;;;;;;;;;;36.30;18.61;99912.47;4394043;32;34124;-87
2021/08/02 13:39:06;;;;;;;;;;;;;;;36.21;18.87;99914.59;4394223;32;32672;-87
2021/08/02 13:41:34;;;;;;;;;;;;;;;35.37;19.83;99908.75;4394523;32;35353;-88
2021/08/02 13:44:01;;;;;;;;;;;;;;;35.74;19.29;99915.47;4407077;32;35075;-87
2021/08/02 13:46:30;;;;;;;;;;;;;;;33.87;21.66;99915.47;4405273;32;34906;-88
2021/08/02 13:48:58;;;;;;;;;;;;;;;34.44;21.36;99910.88;4394726;32;34219;-87
2021/08/02 13:51:26;;;;;;;;;;;;;;;32.73;23.95;99916.13;4419902;32;34440;-89
2021/08/02 13:53:54;;;;;;;;;;;;;;;34.70;21.67;99908.50;4381491;32;36076;-88
2021/08/02 13:56:22;;;;;;;;;;;;;;;34.93;21.52;99898.22;4394461;32;34740;-88
2021/08/02 13:58:50;;;;;;;;;;;;;;;35.11;21.69;99904.94;4404708;32;33640;-88
2021/08/02 14:01:18;;;;;;;;;;;;;;;35.22;20.96;99904.34;4406463;32;34327;-88
2021/08/02 14:03:48;;;;;;;;;;;;;;;34.70;20.80;99903.91;4394151;32;34985;-90
2021/08/02 14:06:17;;;;;;;;;;;;;;;34.67;20.60;99887.28;4381032;32;33272;-87